Kezdőlap
METAR-TAF:

METAR-TAF

Repülőterek :

Koror, Babeldaob, Palau

földrajzi szélesség: 07-22N, földrajzi hosszúság: 134-32E, magasság: 54 m

Jelenlegi meteorológiai megfigyelések

A jelentés 45 perccel ezelõtt készült, 23:50 UTC
Észak-északkeleti szél 6 kt széllökések: 11 kt
Hőmérséklet 29°C
Páratartalom 79%
Légköri nyomás 1011 hPa
Látótávolság: 24.1 km
Szórványos felhőzet 1600 lábon, Tornyos gomolyfelhő.
Szakadozott felhőzet 12000 lábon
Szakadozott felhőzet 30000 lábon

METAR: PTRO 142350Z 03006G11KT 15SM SCT016TCU BKN120 BKN300 29/25 A2986 RMK TCU ALQDS

Idő: 09:35 (00:35 UTC)

Előrejelzés

A jelentés 1 órával és 14 perccel ezelõtt készült, 23:21 UTC
Az előrejelzés 15-én 00 óra UTC és 15-én 24 óra UTC között érvényes
Északkeleti szél 10 kt
Látótávolság: 10 km
Szórványos felhőzet 1700 lábon

TAF: PTRO 142321Z 1500/1524 04010KT P6SM SCT017

Meteorológiai megfigyelések és előrejelzések több, mint 4000 repülőtéren (METAR és TAF jelentéseket).

A térképen piros és sárga pontok jelzik az elérhető meteorológiai állomásokat.

Mozgassa az egeret a pont fölött, hogy megjelenjen az állomás neve.

Azután kattintson az időjárási megfigyelések és előrejelzések megtekintéséhez.

A térkép megváltoztatása: kattintson a fekete keresztel jelölt zöld gombra ráközelítéshez, a vonallal jelölt zöld gombra távolításhoz, vagy a zöld nyilakra a szomszédos térképek eléréséhez.


METAR-TAF: